Everett, Washington
Current Conditions -  °F | °C
As of 3:53 AM on Friday 28 Nov 2014 (Local Time) from KPAE Reporting Station
Overcast Overcast  
Wind Chill: 53°   Ceiling: 1500
Heat Index: 53°   Visibility: 10mi
Dew Point: 49°   Wind: 28mph
Humidity: 86%   Direction: 200°SSW
Pressure: 29.56"   Gusts: 38mph
Location:  47.98°N, 122.2°W
Report Text: KPAE 281153Z 20024G33KT 10SM OVC015 12/09 A2956 RMK AO2 PK WND 19033/1113 RAE51 SLP009 P0001 60001 70002 T01170094 10122 20111 56020
Loading
Personal Weather Stations






























Interactive Weather Map New forecast layout! Learn more

10-Day Weather Forecast

Advertisements
Track Severe Weather on mobile